Time;durP1;ratioP1;P1;durP2;ratioP2;P2;SDS_P1;SDS_P2;PMS_P1;PMS_P2;Temp;Humidity;BMP_temperature;BMP_pressure;BME280_temperature;BME280_humidity;BME280_pressure;Samples;Min_cycle;Max_cycle;Signal;HPM_P1;HPM_P2
2024/03/21 00:04:43;;;;;;;8.00;3.63;;;;;;;;;;10196721;29;20408;-60
2024/03/21 00:09:44;;;;;;;9.55;4.32;;;;;;;;;;10199296;29;20027;-59
2024/03/21 00:14:44;;;;;;;5.38;3.75;;;;;;;;;;10192254;29;20036;-60
2024/03/21 00:19:45;;;;;;;6.35;3.75;;;;;;;;;;10204393;29;20083;-61
2024/03/21 00:24:45;;;;;;;6.43;3.92;;;;;;;;;;10204498;29;20035;-61
2024/03/21 00:29:49;;;;;;;9.88;3.80;;;;;;;;;;10192735;29;20036;-60
2024/03/21 00:34:50;;;;;;;4.53;3.63;;;;;;;;;;10193973;29;20051;-60
2024/03/21 00:39:53;;;;;;;8.13;3.67;;;;;;;;;;10202297;29;20032;-60
2024/03/21 00:44:54;;;;;;;7.32;3.72;;;;;;;;;;10203810;29;20147;-60
2024/03/21 00:49:55;;;;;;;4.38;3.13;;;;;;;;;;10195878;29;20437;-60
2024/03/21 00:54:55;;;;;;;4.28;3.55;;;;;;;;;;10193900;29;20094;-60
2024/03/21 00:59:56;;;;;;;3.95;3.30;;;;;;;;;;10203670;29;20031;-60
2024/03/21 01:04:57;;;;;;;5.60;3.42;;;;;;;;;;10204494;29;20024;-60
2024/03/21 01:09:58;;;;;;;4.38;3.65;;;;;;;;;;10211517;29;20042;-59
2024/03/21 01:14:58;;;;;;;5.10;3.50;;;;;;;;;;10197793;29;20495;-59
2024/03/21 01:19:59;;;;;;;6.57;3.38;;;;;;;;;;10198492;29;20086;-59
2024/03/21 01:24:59;;;;;;;6.10;3.60;;;;;;;;;;10198323;29;20034;-60
2024/03/21 01:30:00;;;;;;;5.40;3.65;;;;;;;;;;10186601;29;20032;-61
2024/03/21 01:35:01;;;;;;;5.93;3.47;;;;;;;;;;10210921;29;20048;-63
2024/03/21 01:40:06;;;;;;;5.57;3.47;;;;;;;;;;10185167;29;20027;-62
2024/03/21 01:45:07;;;;;;;9.02;3.72;;;;;;;;;;10173887;29;20115;-61
2024/03/21 01:50:08;;;;;;;6.53;3.40;;;;;;;;;;10172990;29;20090;-61
2024/03/21 01:55:14;;;;;;;6.93;3.55;;;;;;;;;;10185967;29;20040;-62
2024/03/21 02:00:14;;;;;;;7.93;3.70;;;;;;;;;;10205039;29;20028;-62
2024/03/21 02:05:15;;;;;;;6.22;3.20;;;;;;;;;;10188708;29;20032;-60
2024/03/21 02:10:16;;;;;;;4.78;3.45;;;;;;;;;;10185833;29;20031;-62
2024/03/21 02:15:17;;;;;;;6.75;3.78;;;;;;;;;;10191996;29;20030;-62
2024/03/21 02:20:17;;;;;;;4.13;3.22;;;;;;;;;;10188084;29;20039;-63
2024/03/21 02:25:18;;;;;;;6.45;3.38;;;;;;;;;;10193597;29;20035;-63
2024/03/21 02:30:18;;;;;;;4.38;3.40;;;;;;;;;;10197135;29;20031;-63
2024/03/21 02:35:19;;;;;;;5.65;3.90;;;;;;;;;;10170822;29;20051;-62
2024/03/21 02:40:19;;;;;;;4.63;3.38;;;;;;;;;;10213345;29;20031;-62
2024/03/21 02:45:20;;;;;;;6.07;3.75;;;;;;;;;;10182555;29;20032;-62
2024/03/21 02:50:21;;;;;;;5.32;3.50;;;;;;;;;;10183930;29;20062;-62
2024/03/21 02:55:21;;;;;;;3.60;3.30;;;;;;;;;;10170669;29;20079;-62
2024/03/21 03:00:22;;;;;;;3.40;3.10;;;;;;;;;;10193591;29;20035;-62
2024/03/21 03:05:22;;;;;;;4.88;3.22;;;;;;;;;;10206597;29;20047;-62
2024/03/21 03:10:23;;;;;;;6.40;3.42;;;;;;;;;;10202235;29;20032;-63
2024/03/21 03:15:24;;;;;;;4.78;3.55;;;;;;;;;;10201948;29;20035;-63
2024/03/21 03:20:24;;;;;;;6.55;3.42;;;;;;;;;;10186128;29;20020;-63
2024/03/21 03:25:25;;;;;;;5.07;3.38;;;;;;;;;;10181543;29;20038;-62
2024/03/21 03:30:26;;;;;;;5.85;3.25;;;;;;;;;;10192725;29;20032;-63
2024/03/21 03:35:40;;;;;;;5.05;3.53;;;;;;;;;;10191782;29;20059;-63
2024/03/21 03:40:41;;;;;;;6.60;2.90;;;;;;;;;;10182054;29;20543;-62
2024/03/21 03:45:42;;;;;;;3.63;3.00;;;;;;;;;;10193863;29;20047;-63
2024/03/21 03:50:43;;;;;;;3.72;3.33;;;;;;;;;;10171052;29;20055;-61
2024/03/21 03:55:43;;;;;;;3.45;2.92;;;;;;;;;;10204843;29;20485;-63
2024/03/21 04:00:44;;;;;;;3.40;3.10;;;;;;;;;;10199028;29;20262;-63
2024/03/21 04:06:01;;;;;;;3.70;2.92;;;;;;;;;;10199056;29;20027;-63
2024/03/21 04:11:01;;;;;;;4.05;3.55;;;;;;;;;;10200600;29;20064;-61
2024/03/21 04:16:02;;;;;;;4.90;3.47;;;;;;;;;;10205172;29;20090;-62
2024/03/21 04:21:03;;;;;;;4.32;3.15;;;;;;;;;;10204464;29;20459;-63
2024/03/21 04:26:03;;;;;;;3.95;2.78;;;;;;;;;;10203986;29;20020;-62
2024/03/21 04:31:04;;;;;;;3.53;3.08;;;;;;;;;;10203449;29;20368;-63
2024/03/21 04:36:06;;;;;;;6.28;3.20;;;;;;;;;;10204663;29;20048;-63
2024/03/21 04:41:06;;;;;;;4.78;3.08;;;;;;;;;;10205037;29;20027;-63
2024/03/21 04:46:07;;;;;;;3.47;3.17;;;;;;;;;;10208926;29;20039;-63
2024/03/21 04:51:08;;;;;;;3.55;2.97;;;;;;;;;;10209956;29;20027;-63
2024/03/21 04:56:08;;;;;;;4.85;2.80;;;;;;;;;;10207984;29;20539;-63
2024/03/21 05:01:09;;;;;;;3.10;2.90;;;;;;;;;;10208878;29;20020;-63
2024/03/21 05:06:09;;;;;;;3.28;2.97;;;;;;;;;;10208489;29;20028;-63
2024/03/21 05:11:10;;;;;;;4.45;2.92;;;;;;;;;;10209201;29;20032;-63
2024/03/21 05:16:10;;;;;;;4.28;2.92;;;;;;;;;;10195222;29;20031;-63
2024/03/21 05:21:11;;;;;;;3.42;2.97;;;;;;;;;;10194998;29;20038;-62
2024/03/21 05:26:12;;;;;;;3.90;3.15;;;;;;;;;;10182513;29;20028;-62
2024/03/21 05:31:24;;;;;;;4.30;3.20;;;;;;;;;;10182343;29;20020;-62
2024/03/21 05:36:24;;;;;;;3.50;3.05;;;;;;;;;;10171119;29;1121428;-63
2024/03/21 05:41:25;;;;;;;4.32;3.35;;;;;;;;;;10185034;29;20040;-63
2024/03/21 05:46:28;;;;;;;4.00;2.80;;;;;;;;;;10204372;29;20466;-62
2024/03/21 05:51:29;;;;;;;3.50;3.00;;;;;;;;;;10208340;29;20035;-62
2024/03/21 05:56:30;;;;;;;4.60;3.20;;;;;;;;;;10180588;29;20024;-62
2024/03/21 06:01:33;;;;;;;3.25;2.90;;;;;;;;;;10176057;29;20046;-61
2024/03/21 06:06:34;;;;;;;3.15;2.85;;;;;;;;;;10205566;29;20494;-61
2024/03/21 06:11:34;;;;;;;3.72;2.80;;;;;;;;;;10207714;29;20031;-61
2024/03/21 06:16:35;;;;;;;3.45;2.85;;;;;;;;;;10200581;29;20036;-60
2024/03/21 06:21:35;;;;;;;2.80;2.50;;;;;;;;;;10203528;29;20035;-62
2024/03/21 06:26:36;;;;;;;3.42;2.88;;;;;;;;;;10204550;29;20617;-63
2024/03/21 06:31:37;;;;;;;3.38;3.08;;;;;;;;;;10199445;29;20380;-62
2024/03/21 06:36:37;;;;;;;3.00;2.70;;;;;;;;;;10207873;29;20054;-61
2024/03/21 06:41:38;;;;;;;6.07;3.10;;;;;;;;;;10205006;29;20031;-60
2024/03/21 06:46:38;;;;;;;2.85;2.58;;;;;;;;;;10205520;29;20040;-61
2024/03/21 06:51:39;;;;;;;4.50;3.47;;;;;;;;;;10203822;29;20078;-60
2024/03/21 06:56:40;;;;;;;28.33;6.43;;;;;;;;;;10204907;29;20381;-62
2024/03/21 07:01:40;;;;;;;23.73;6.78;;;;;;;;;;10190723;29;20388;-64
2024/03/21 07:06:41;;;;;;;36.72;8.73;;;;;;;;;;10204914;29;20039;-61
2024/03/21 07:11:41;;;;;;;34.63;9.95;;;;;;;;;;10203253;29;20036;-62
2024/03/21 07:16:43;;;;;;;27.33;11.40;;;;;;;;;;10200971;29;20099;-61
2024/03/21 07:21:45;;;;;;;29.90;9.38;;;;;;;;;;10206570;29;20038;-61
2024/03/21 07:26:45;;;;;;;16.30;10.85;;;;;;;;;;10205412;29;20042;-61
2024/03/21 07:31:46;;;;;;;15.48;9.30;;;;;;;;;;10205436;29;20035;-61
2024/03/21 07:36:47;;;;;;;12.63;8.82;;;;;;;;;;10204696;29;20103;-61
2024/03/21 07:41:48;;;;;;;21.52;9.00;;;;;;;;;;10204314;29;20098;-61
2024/03/21 07:46:48;;;;;;;15.85;9.13;;;;;;;;;;10205295;29;20372;-60
2024/03/21 07:51:50;;;;;;;14.52;9.15;;;;;;;;;;10204985;29;20434;-61
2024/03/21 07:56:51;;;;;;;12.80;7.95;;;;;;;;;;10205598;29;20368;-60
2024/03/21 08:01:52;;;;;;;14.77;8.30;;;;;;;;;;10203878;29;20027;-61
2024/03/21 08:06:52;;;;;;;14.20;8.85;;;;;;;;;;10203350;29;20039;-60
2024/03/21 08:11:54;;;;;;;14.25;7.72;;;;;;;;;;10208967;29;20036;-61
2024/03/21 08:16:55;;;;;;;9.25;7.38;;;;;;;;;;10168435;29;20035;-60
2024/03/21 08:21:55;;;;;;;12.13;7.80;;;;;;;;;;10169349;29;20405;-60
2024/03/21 08:26:59;;;;;;;12.98;8.63;;;;;;;;;;10180965;29;20396;-61
2024/03/21 08:32:00;;;;;;;13.60;7.82;;;;;;;;;;10179613;29;20029;-61
2024/03/21 08:37:00;;;;;;;15.05;8.68;;;;;;;;;;10167262;29;20413;-61
2024/03/21 08:42:01;;;;;;;10.50;7.68;;;;;;;;;;10168087;29;20370;-61
2024/03/21 08:47:02;;;;;;;16.75;8.35;;;;;;;;;;10168242;29;20424;-61
2024/03/21 08:52:02;;;;;;;12.65;9.10;;;;;;;;;;10167376;29;20217;-62
2024/03/21 08:57:03;;;;;;;11.93;7.90;;;;;;;;;;10167795;29;20036;-62
2024/03/21 09:02:05;;;;;;;10.93;7.40;;;;;;;;;;10179476;29;20086;-61
2024/03/21 09:07:06;;;;;;;10.75;7.85;;;;;;;;;;10176466;29;20086;-62
2024/03/21 09:12:07;;;;;;;11.07;7.80;;;;;;;;;;10191727;28;20103;-61
2024/03/21 09:17:08;;;;;;;11.73;8.07;;;;;;;;;;10179694;29;20052;-62
2024/03/21 09:22:08;;;;;;;11.75;7.13;;;;;;;;;;10179994;29;20031;-62
2024/03/21 09:27:09;;;;;;;9.77;7.28;;;;;;;;;;10169430;29;20047;-62
2024/03/21 09:32:09;;;;;;;12.80;7.85;;;;;;;;;;10173511;29;20028;-60
2024/03/21 09:37:10;;;;;;;10.43;7.35;;;;;;;;;;10173414;29;20059;-61
2024/03/21 09:42:19;;;;;;;13.25;8.18;;;;;;;;;;10173094;29;20036;-61
2024/03/21 09:47:23;;;;;;;10.07;7.60;;;;;;;;;;10173365;29;20135;-61
2024/03/21 09:52:23;;;;;;;11.77;7.88;;;;;;;;;;10173232;29;20056;-61
2024/03/21 09:57:24;;;;;;;11.98;8.02;;;;;;;;;;10173730;29;20032;-60
2024/03/21 10:02:25;;;;;;;11.38;7.97;;;;;;;;;;10172936;29;20339;-60
2024/03/21 10:07:26;;;;;;;10.32;7.43;;;;;;;;;;10182613;29;20043;-61
2024/03/21 10:12:27;;;;;;;11.75;7.63;;;;;;;;;;10188027;29;20028;-61
2024/03/21 10:17:27;;;;;;;9.32;7.22;;;;;;;;;;10172378;29;20036;-61
2024/03/21 10:22:29;;;;;;;11.38;8.27;;;;;;;;;;10176638;29;20024;-61
2024/03/21 10:27:33;;;;;;;11.00;7.53;;;;;;;;;;10179182;29;20060;-62
2024/03/21 10:32:34;;;;;;;11.35;7.63;;;;;;;;;;10175268;29;20392;-61
2024/03/21 10:37:35;;;;;;;13.13;8.02;;;;;;;;;;10173429;29;20048;-61
2024/03/21 10:42:39;;;;;;;14.48;8.20;;;;;;;;;;10179134;29;20111;-62
2024/03/21 10:47:52;;;;;;;9.57;7.82;;;;;;;;;;10182123;29;20034;-61
2024/03/21 10:52:56;;;;;;;10.98;7.93;;;;;;;;;;10170763;29;20110;-62
2024/03/21 10:58:03;;;;;;;10.75;8.38;;;;;;;;;;10169519;29;20496;-61
2024/03/21 11:03:04;;;;;;;11.90;8.50;;;;;;;;;;10170211;29;20039;-62
2024/03/21 11:08:30;;;;;;;13.07;8.35;;;;;;;;;;10183858;29;20353;-61
2024/03/21 11:13:30;;;;;;;10.93;8.48;;;;;;;;;;10183148;29;20090;-61
2024/03/21 11:18:31;;;;;;;15.45;8.77;;;;;;;;;;10165210;29;20120;-61
2024/03/21 11:23:31;;;;;;;10.73;8.10;;;;;;;;;;10169330;29;20507;-61
2024/03/21 11:28:32;;;;;;;10.98;8.52;;;;;;;;;;10152985;29;20397;-62
2024/03/21 11:33:33;;;;;;;18.40;8.55;;;;;;;;;;10168946;29;20028;-62
2024/03/21 11:38:34;;;;;;;11.95;8.23;;;;;;;;;;10169896;29;20381;-61
2024/03/21 11:43:38;;;;;;;14.30;9.07;;;;;;;;;;10168936;29;20036;-61
2024/03/21 11:48:38;;;;;;;12.05;8.38;;;;;;;;;;10167899;29;20024;-62
2024/03/21 11:53:39;;;;;;;11.57;8.70;;;;;;;;;;10168075;29;20489;-62
2024/03/21 11:58:40;;;;;;;12.07;8.60;;;;;;;;;;10168615;29;20265;-62
2024/03/21 12:03:40;;;;;;;12.07;7.65;;;;;;;;;;10180024;29;20095;-62
2024/03/21 12:08:41;;;;;;;13.02;8.25;;;;;;;;;;10201181;29;20035;-61
2024/03/21 12:13:43;;;;;;;11.90;8.18;;;;;;;;;;10185821;29;20059;-61
2024/03/21 12:18:45;;;;;;;9.98;8.13;;;;;;;;;;10167524;29;20039;-60
2024/03/21 12:23:48;;;;;;;11.35;7.72;;;;;;;;;;10167965;29;20441;-60
2024/03/21 12:28:49;;;;;;;14.30;8.90;;;;;;;;;;10167580;29;20032;-62
2024/03/21 12:33:52;;;;;;;12.60;8.07;;;;;;;;;;10180009;29;20056;-62
2024/03/21 12:38:52;;;;;;;11.13;8.45;;;;;;;;;;10179701;29;20396;-61
2024/03/21 12:43:53;;;;;;;12.25;8.32;;;;;;;;;;10167960;29;20040;-61
2024/03/21 12:48:53;;;;;;;11.80;7.95;;;;;;;;;;10182416;29;20031;-60
2024/03/21 12:53:54;;;;;;;12.48;8.23;;;;;;;;;;10197408;29;20030;-60
2024/03/21 12:58:54;;;;;;;10.50;8.25;;;;;;;;;;10203637;29;20028;-60
2024/03/21 13:03:55;;;;;;;13.23;7.78;;;;;;;;;;10208313;29;20032;-60
2024/03/21 13:08:56;;;;;;;11.32;8.05;;;;;;;;;;10210479;29;20050;-61
2024/03/21 13:13:57;;;;;;;9.40;8.07;;;;;;;;;;10193780;29;20218;-61
2024/03/21 13:18:57;;;;;;;9.38;7.70;;;;;;;;;;10185236;29;20059;-60
2024/03/21 13:23:58;;;;;;;14.98;7.85;;;;;;;;;;10204181;29;20032;-60
2024/03/21 13:28:59;;;;;;;9.75;7.38;;;;;;;;;;10210499;29;20044;-61
2024/03/21 13:33:59;;;;;;;11.50;8.18;;;;;;;;;;10209358;29;20563;-61
2024/03/21 13:39:02;;;;;;;9.60;7.28;;;;;;;;;;10209556;29;20036;-61
2024/03/21 13:44:05;;;;;;;12.52;7.78;;;;;;;;;;10204561;29;20132;-61
2024/03/21 13:49:08;;;;;;;8.88;7.82;;;;;;;;;;10206879;29;20035;-61
2024/03/21 13:54:08;;;;;;;10.55;8.07;;;;;;;;;;10203473;29;20436;-61
2024/03/21 13:59:10;;;;;;;12.70;8.40;;;;;;;;;;10208915;29;20027;-60
2024/03/21 14:04:11;;;;;;;9.73;7.40;;;;;;;;;;10205333;29;20280;-60
2024/03/21 14:09:12;;;;;;;10.43;7.70;;;;;;;;;;10216059;29;20288;-60
2024/03/21 14:14:12;;;;;;;10.68;7.57;;;;;;;;;;10208906;29;20031;-61
2024/03/21 14:19:13;;;;;;;11.88;7.88;;;;;;;;;;10207775;29;20476;-62
2024/03/21 14:24:13;;;;;;;43.47;8.23;;;;;;;;;;10208033;29;20381;-59
2024/03/21 14:29:14;;;;;;;29.67;11.30;;;;;;;;;;10207922;29;20032;-59
2024/03/21 14:34:15;;;;;;;35.80;11.05;;;;;;;;;;10205089;29;20460;-62
2024/03/21 14:39:16;;;;;;;28.98;10.68;;;;;;;;;;10213159;29;20038;-64
2024/03/21 14:44:16;;;;;;;19.05;10.18;;;;;;;;;;10198049;29;20036;-61
2024/03/21 14:49:20;;;;;;;29.92;10.70;;;;;;;;;;10208107;29;20028;-63
2024/03/21 14:54:21;;;;;;;28.10;9.75;;;;;;;;;;10208072;29;20043;-62
2024/03/21 14:59:22;;;;;;;24.63;10.00;;;;;;;;;;10200935;29;20040;-62
2024/03/21 15:04:22;;;;;;;31.73;9.65;;;;;;;;;;10206820;29;20035;-62
2024/03/21 15:09:23;;;;;;;26.63;8.77;;;;;;;;;;10207627;29;20175;-63
2024/03/21 15:14:23;;;;;;;27.77;9.25;;;;;;;;;;10207005;29;20035;-63
2024/03/21 15:19:24;;;;;;;19.88;8.93;;;;;;;;;;10199090;29;20027;-63
2024/03/21 15:24:25;;;;;;;12.25;8.07;;;;;;;;;;10206567;29;20051;-62
2024/03/21 15:29:25;;;;;;;16.95;9.10;;;;;;;;;;10205687;29;20031;-62
2024/03/21 15:34:26;;;;;;;15.15;8.00;;;;;;;;;;10205235;29;20047;-60
2024/03/21 15:39:31;;;;;;;12.10;7.32;;;;;;;;;;10205437;29;20038;-62
2024/03/21 15:44:32;;;;;;;17.40;7.32;;;;;;;;;;10204682;29;20038;-63
2024/03/21 15:49:32;;;;;;;11.63;7.78;;;;;;;;;;10204838;29;20026;-60
2024/03/21 15:54:33;;;;;;;13.00;7.53;;;;;;;;;;10204259;29;20024;-61
2024/03/21 15:59:34;;;;;;;12.40;8.05;;;;;;;;;;10205091;29;20027;-63
2024/03/21 16:04:34;;;;;;;14.70;8.45;;;;;;;;;;10203834;29;20038;-57
2024/03/21 16:09:36;;;;;;;11.38;7.38;;;;;;;;;;10207185;29;20028;-61
2024/03/21 16:14:37;;;;;;;9.23;7.28;;;;;;;;;;10205432;29;20135;-59
2024/03/21 16:19:37;;;;;;;9.70;7.40;;;;;;;;;;10204707;29;20039;-60
2024/03/21 16:24:38;;;;;;;12.23;7.43;;;;;;;;;;10200690;29;20039;-60
2024/03/21 16:29:39;;;;;;;10.70;7.10;;;;;;;;;;10204589;29;20083;-59
2024/03/21 16:34:39;;;;;;;15.68;7.57;;;;;;;;;;10204700;29;20060;-61
2024/03/21 16:39:40;;;;;;;15.40;7.32;;;;;;;;;;10212164;29;20038;-61
2024/03/21 16:44:41;;;;;;;15.45;7.28;;;;;;;;;;10211370;29;20042;-61
2024/03/21 16:49:42;;;;;;;12.30;7.38;;;;;;;;;;10211000;29;20019;-61
2024/03/21 16:54:43;;;;;;;14.93;8.07;;;;;;;;;;10212727;29;20048;-60
2024/03/21 16:59:44;;;;;;;13.48;7.25;;;;;;;;;;10211377;29;20083;-61
2024/03/21 17:04:44;;;;;;;10.23;7.38;;;;;;;;;;10211513;29;20135;-61
2024/03/21 17:09:45;;;;;;;7.50;6.68;;;;;;;;;;10215877;29;20031;-61
2024/03/21 17:14:46;;;;;;;8.18;6.95;;;;;;;;;;10181752;29;20040;-61
2024/03/21 17:19:47;;;;;;;12.15;7.32;;;;;;;;;;10205045;29;20034;-62
2024/03/21 17:24:48;;;;;;;10.57;6.90;;;;;;;;;;10205726;29;20038;-62
2024/03/21 17:29:52;;;;;;;14.07;6.45;;;;;;;;;;10210986;29;20032;-62
2024/03/21 17:34:52;;;;;;;8.68;6.57;;;;;;;;;;10209813;29;20102;-61
2024/03/21 17:39:53;;;;;;;8.48;6.50;;;;;;;;;;10207429;29;20032;-61
2024/03/21 17:44:53;;;;;;;10.88;7.13;;;;;;;;;;10205002;29;20039;-62
2024/03/21 17:49:54;;;;;;;11.60;6.50;;;;;;;;;;10209282;29;20032;-61
2024/03/21 17:54:54;;;;;;;9.30;6.70;;;;;;;;;;10209228;29;20115;-62
2024/03/21 17:59:55;;;;;;;8.32;6.25;;;;;;;;;;10207569;29;20028;-61
2024/03/21 18:04:56;;;;;;;10.05;6.75;;;;;;;;;;10206280;29;20042;-60
2024/03/21 18:09:56;;;;;;;11.05;6.45;;;;;;;;;;10194460;29;20030;-60
2024/03/21 18:14:57;;;;;;;15.80;6.65;;;;;;;;;;10198576;29;20075;-61
2024/03/21 18:20:18;;;;;;;15.10;6.47;;;;;;;;;;10195808;29;20046;-60
2024/03/21 18:25:18;;;;;;;12.93;6.68;;;;;;;;;;10113288;29;20085;-62
2024/03/21 18:30:19;;;;;;;8.93;6.28;;;;;;;;;;10105035;29;20152;-62
2024/03/21 18:35:20;;;;;;;9.00;6.07;;;;;;;;;;10106938;29;20053;-62
2024/03/21 18:40:20;;;;;;;8.15;5.50;;;;;;;;;;10093152;29;20041;-63
2024/03/21 18:45:21;;;;;;;8.43;5.82;;;;;;;;;;10101895;29;20382;-62
2024/03/21 18:50:22;;;;;;;10.32;6.00;;;;;;;;;;10103559;29;20229;-63
2024/03/21 18:55:23;;;;;;;7.55;6.00;;;;;;;;;;10098126;29;20114;-62
2024/03/21 19:00:23;;;;;;;8.65;6.13;;;;;;;;;;10131043;29;20173;-60
2024/03/21 19:05:24;;;;;;;8.25;6.55;;;;;;;;;;10206762;29;20043;-60
2024/03/21 19:10:24;;;;;;;8.57;6.30;;;;;;;;;;10205741;29;20388;-60
2024/03/21 19:15:25;;;;;;;9.57;6.70;;;;;;;;;;10206657;29;20462;-60
2024/03/21 19:20:26;;;;;;;7.40;6.25;;;;;;;;;;10207491;29;20524;-60
2024/03/21 19:25:26;;;;;;;12.25;7.38;;;;;;;;;;10205273;29;20042;-61
2024/03/21 19:30:28;;;;;;;7.75;6.68;;;;;;;;;;10202265;29;20032;-60
2024/03/21 19:35:29;;;;;;;9.52;7.03;;;;;;;;;;10193311;29;20415;-61
2024/03/21 19:40:29;;;;;;;10.73;6.90;;;;;;;;;;10185284;29;20032;-60
2024/03/21 19:45:30;;;;;;;10.05;7.30;;;;;;;;;;10189784;29;20044;-59
2024/03/21 19:50:31;;;;;;;13.48;7.28;;;;;;;;;;10195626;29;20098;-59
2024/03/21 19:55:32;;;;;;;17.55;7.55;;;;;;;;;;10195352;29;20397;-60
2024/03/21 20:00:32;;;;;;;10.98;7.70;;;;;;;;;;10196851;29;20166;-59
2024/03/21 20:05:33;;;;;;;11.38;6.95;;;;;;;;;;10195996;29;20504;-61
2024/03/21 20:10:33;;;;;;;9.95;7.60;;;;;;;;;;10188295;29;20035;-60
2024/03/21 20:15:34;;;;;;;10.50;7.00;;;;;;;;;;10190171;29;20028;-60
2024/03/21 20:20:35;;;;;;;10.90;7.25;;;;;;;;;;10186076;29;20024;-60
2024/03/21 20:25:35;;;;;;;7.50;6.35;;;;;;;;;;10187858;29;20039;-60
2024/03/21 20:30:39;;;;;;;11.35;6.13;;;;;;;;;;10193027;29;20032;-60
2024/03/21 20:35:39;;;;;;;9.57;6.07;;;;;;;;;;10182635;29;20037;-59
2024/03/21 20:40:40;;;;;;;7.50;6.28;;;;;;;;;;10197950;29;20035;-61
2024/03/21 20:45:44;;;;;;;8.57;5.60;;;;;;;;;;10201332;29;20043;-61
2024/03/21 20:50:46;;;;;;;10.00;6.22;;;;;;;;;;10195241;29;20035;-61
2024/03/21 20:55:53;;;;;;;7.60;6.20;;;;;;;;;;10195791;29;20091;-61
2024/03/21 21:01:06;;;;;;;8.02;5.78;;;;;;;;;;10193694;29;20114;-61
2024/03/21 21:06:07;;;;;;;7.63;5.70;;;;;;;;;;10189075;29;20476;-61
2024/03/21 21:11:08;;;;;;;8.05;5.68;;;;;;;;;;10196700;29;20429;-61
2024/03/21 21:16:09;;;;;;;7.18;5.40;;;;;;;;;;10188013;29;20030;-61
2024/03/21 21:21:09;;;;;;;7.97;5.60;;;;;;;;;;10195381;29;20055;-61
2024/03/21 21:26:10;;;;;;;6.53;4.95;;;;;;;;;;10201114;29;20043;-61
2024/03/21 21:31:12;;;;;;;8.43;5.50;;;;;;;;;;10203082;29;20039;-61
2024/03/21 21:36:17;;;;;;;6.50;5.20;;;;;;;;;;10195011;29;20440;-61
2024/03/21 21:41:19;;;;;;;6.70;5.38;;;;;;;;;;10192458;29;20414;-61
2024/03/21 21:46:20;;;;;;;5.97;4.90;;;;;;;;;;10199169;29;20032;-61
2024/03/21 21:51:20;;;;;;;8.10;5.60;;;;;;;;;;10208448;29;20376;-61
2024/03/21 21:56:21;;;;;;;6.35;5.43;;;;;;;;;;10200044;29;20036;-59
2024/03/21 22:01:22;;;;;;;7.05;5.38;;;;;;;;;;10191995;29;20036;-60
2024/03/21 22:06:23;;;;;;;6.05;4.80;;;;;;;;;;10185955;29;20051;-60
2024/03/21 22:11:23;;;;;;;5.53;4.85;;;;;;;;;;10195043;29;20043;-60
2024/03/21 22:16:24;;;;;;;9.73;4.75;;;;;;;;;;10198875;29;20040;-60
2024/03/21 22:21:25;;;;;;;5.93;4.80;;;;;;;;;;10205966;29;20027;-60
2024/03/21 22:26:25;;;;;;;7.45;4.88;;;;;;;;;;10205827;29;20400;-60
2024/03/21 22:31:26;;;;;;;7.20;4.82;;;;;;;;;;10196674;29;20413;-60
2024/03/21 22:36:26;;;;;;;10.80;5.10;;;;;;;;;;10189119;29;20400;-63
2024/03/21 22:41:27;;;;;;;5.43;4.78;;;;;;;;;;10199418;29;20032;-61
2024/03/21 22:46:28;;;;;;;7.32;5.30;;;;;;;;;;10198144;29;20047;-62
2024/03/21 22:51:28;;;;;;;7.47;5.07;;;;;;;;;;10198645;29;20379;-61
2024/03/21 22:56:29;;;;;;;7.80;5.60;;;;;;;;;;10194274;29;20281;-62
2024/03/21 23:01:31;;;;;;;14.90;6.43;;;;;;;;;;10198424;29;20048;-61
2024/03/21 23:06:31;;;;;;;11.35;5.75;;;;;;;;;;10203029;29;20032;-63
2024/03/21 23:11:32;;;;;;;9.80;6.35;;;;;;;;;;10207297;29;20484;-61
2024/03/21 23:16:33;;;;;;;26.10;6.50;;;;;;;;;;10197528;29;20542;-61
2024/03/21 23:21:33;;;;;;;11.30;6.72;;;;;;;;;;10170688;29;20027;-61
2024/03/21 23:26:34;;;;;;;9.88;6.47;;;;;;;;;;10199211;29;20098;-66
2024/03/21 23:31:35;;;;;;;16.92;7.05;;;;;;;;;;10202886;29;20035;-63
2024/03/21 23:36:35;;;;;;;10.45;6.85;;;;;;;;;;10187467;29;20059;-64
2024/03/21 23:41:36;;;;;;;11.65;6.82;;;;;;;;;;10200170;29;20122;-64
2024/03/21 23:46:37;;;;;;;14.23;6.78;;;;;;;;;;10199403;29;20059;-64
2024/03/21 23:51:37;;;;;;;9.70;6.40;;;;;;;;;;10205377;29;20040;-64
2024/03/21 23:57:00;;;;;;;8.00;6.07;;;;;;;;;;10204372;29;20032;-63
